sensor_id;sensor_type;location;lat;lon;timestamp;pressure;altitude;pressure_sealevel;temperature;humidity
36932;BME280;22847;42.654;23.370;2022-07-10T00:00:10;94578.63;;;18.79;73.93
36932;BME280;22847;42.654;23.370;2022-07-10T00:02:36;94454.13;;;17.66;74.27
36932;BME280;22847;42.654;23.370;2022-07-10T00:05:02;94592.38;;;18.61;74.82
36932;BME280;22847;42.654;23.370;2022-07-10T00:07:27;94382.41;;;17.21;75.19
36932;BME280;22847;42.654;23.370;2022-07-10T00:09:53;94620.44;;;18.69;74.67
36932;BME280;22847;42.654;23.370;2022-07-10T00:12:18;94596.41;;;18.57;75.22
36932;BME280;22847;42.654;23.370;2022-07-10T00:14:44;94595.81;;;18.62;74.99
36932;BME280;22847;42.654;23.370;2022-07-10T00:17:09;94412.63;;;17.47;74.32
36932;BME280;22847;42.654;23.370;2022-07-10T00:19:34;94437.06;;;17.62;74.73
36932;BME280;22847;42.654;23.370;2022-07-10T00:22:00;94584.94;;;18.44;75.30
36932;BME280;22847;42.654;23.370;2022-07-10T00:24:25;94586.72;;;18.37;75.72
36932;BME280;22847;42.654;23.370;2022-07-10T00:26:51;94431.91;;;17.54;75.33
36932;BME280;22847;42.654;23.370;2022-07-10T00:29:16;94576.16;;;18.37;75.65
36932;BME280;22847;42.654;23.370;2022-07-10T00:31:42;94550.13;;;17.99;76.96
36932;BME280;22847;42.654;23.370;2022-07-10T00:34:07;94574.03;;;18.19;77.19
36932;BME280;22847;42.654;23.370;2022-07-10T00:36:32;94579.66;;;18.44;76.06
36932;BME280;22847;42.654;23.370;2022-07-10T00:38:58;94538.91;;;18.18;75.74
36932;BME280;22847;42.654;23.370;2022-07-10T00:41:23;94374.16;;;17.03;75.88
36932;BME280;22847;42.654;23.370;2022-07-10T00:43:56;94603.09;;;18.25;76.49
36932;BME280;22847;42.654;23.370;2022-07-10T00:46:24;94538.03;;;18.11;76.06
36932;BME280;22847;42.654;23.370;2022-07-10T00:48:50;94547.25;;;18.28;75.13
36932;BME280;22847;42.654;23.370;2022-07-10T00:51:17;94466.88;;;17.90;75.37
36932;BME280;22847;42.654;23.370;2022-07-10T00:53:46;94520.50;;;18.32;74.84
36932;BME280;22847;42.654;23.370;2022-07-10T00:56:15;94535.03;;;18.21;75.71
36932;BME280;22847;42.654;23.370;2022-07-10T00:58:43;94566.69;;;18.14;76.04
36932;BME280;22847;42.654;23.370;2022-07-10T01:01:08;94516.84;;;17.98;76.39
36932;BME280;22847;42.654;23.370;2022-07-10T01:03:34;94540.06;;;18.09;76.34
36932;BME280;22847;42.654;23.370;2022-07-10T01:05:59;94593.00;;;18.36;76.01
36932;BME280;22847;42.654;23.370;2022-07-10T01:08:25;94563.38;;;18.40;75.82
36932;BME280;22847;42.654;23.370;2022-07-10T01:10:52;94339.41;;;16.86;76.19
36932;BME280;22847;42.654;23.370;2022-07-10T01:13:18;94510.72;;;17.91;75.70
36932;BME280;22847;42.654;23.370;2022-07-10T01:15:44;94514.28;;;18.11;75.83
36932;BME280;22847;42.654;23.370;2022-07-10T01:18:10;94587.31;;;18.39;75.71
36932;BME280;22847;42.654;23.370;2022-07-10T01:20:36;94540.16;;;18.29;75.58
36932;BME280;22847;42.654;23.370;2022-07-10T01:23:01;94561.00;;;18.17;76.39
36932;BME280;22847;42.654;23.370;2022-07-10T01:25:27;94508.91;;;17.98;76.06
36932;BME280;22847;42.654;23.370;2022-07-10T01:27:53;94542.13;;;18.20;75.92
36932;BME280;22847;42.654;23.370;2022-07-10T01:30:19;94360.72;;;17.19;75.34
36932;BME280;22847;42.654;23.370;2022-07-10T01:32:46;94485.50;;;17.89;75.77
36932;BME280;22847;42.654;23.370;2022-07-10T01:35:12;94531.81;;;18.19;75.78
36932;BME280;22847;42.654;23.370;2022-07-10T01:37:39;94523.94;;;18.32;75.38
36932;BME280;22847;42.654;23.370;2022-07-10T01:40:07;94363.97;;;17.21;75.60
36932;BME280;22847;42.654;23.370;2022-07-10T01:42:32;94508.41;;;18.16;75.27
36932;BME280;22847;42.654;23.370;2022-07-10T01:44:58;94480.47;;;17.87;75.86
36932;BME280;22847;42.654;23.370;2022-07-10T01:47:24;94516.59;;;17.93;76.25
36932;BME280;22847;42.654;23.370;2022-07-10T01:49:53;94453.81;;;17.54;76.31
36932;BME280;22847;42.654;23.370;2022-07-10T01:52:19;94520.13;;;18.07;76.49
36932;BME280;22847;42.654;23.370;2022-07-10T01:54:46;94505.13;;;18.07;76.43
36932;BME280;22847;42.654;23.370;2022-07-10T01:57:12;94523.44;;;18.15;76.10
36932;BME280;22847;42.654;23.370;2022-07-10T01:59:39;94443.81;;;17.71;76.07
36932;BME280;22847;42.654;23.370;2022-07-10T02:02:04;94547.81;;;18.17;75.66
36932;BME280;22847;42.654;23.370;2022-07-10T02:04:30;94515.19;;;17.97;76.39
36932;BME280;22847;42.654;23.370;2022-07-10T02:07:14;94502.59;;;17.93;76.11
36932;BME280;22847;42.654;23.370;2022-07-10T02:09:40;94509.91;;;17.97;76.47
36932;BME280;22847;42.654;23.370;2022-07-10T02:12:06;94523.81;;;18.12;75.73
36932;BME280;22847;42.654;23.370;2022-07-10T02:14:32;94506.69;;;17.67;77.63
36932;BME280;22847;42.654;23.370;2022-07-10T02:16:57;94558.63;;;17.95;76.57
36932;BME280;22847;42.654;23.370;2022-07-10T02:19:23;94541.97;;;17.94;76.66
36932;BME280;22847;42.654;23.370;2022-07-10T02:21:49;94281.44;;;16.37;76.92
36932;BME280;22847;42.654;23.370;2022-07-10T02:24:14;94515.34;;;17.89;76.93
36932;BME280;22847;42.654;23.370;2022-07-10T02:26:40;94310.34;;;16.52;77.10
36932;BME280;22847;42.654;23.370;2022-07-10T02:29:05;94321.03;;;16.50;77.21
36932;BME280;22847;42.654;23.370;2022-07-10T02:31:31;94315.66;;;16.37;77.71
36932;BME280;22847;42.654;23.370;2022-07-10T02:34:02;94308.44;;;16.46;77.13
36932;BME280;22847;42.654;23.370;2022-07-10T02:36:27;94516.91;;;17.77;77.35
36932;BME280;22847;42.654;23.370;2022-07-10T02:38:53;94452.81;;;17.27;77.94
36932;BME280;22847;42.654;23.370;2022-07-10T02:41:19;94454.06;;;17.31;77.83
36932;BME280;22847;42.654;23.370;2022-07-10T02:43:44;94503.16;;;17.39;78.21
36932;BME280;22847;42.654;23.370;2022-07-10T02:46:10;94524.16;;;17.96;76.48
36932;BME280;22847;42.654;23.370;2022-07-10T02:48:35;94362.28;;;16.86;76.58
36932;BME280;22847;42.654;23.370;2022-07-10T02:51:01;94334.03;;;16.52;77.08
36932;BME280;22847;42.654;23.370;2022-07-10T02:53:26;94528.16;;;17.92;76.94
36932;BME280;22847;42.654;23.370;2022-07-10T02:55:52;94534.91;;;18.01;76.56
36932;BME280;22847;42.654;23.370;2022-07-10T02:58:17;94515.16;;;17.91;76.30
36932;BME280;22847;42.654;23.370;2022-07-10T03:00:45;94532.19;;;17.88;76.92
36932;BME280;22847;42.654;23.370;2022-07-10T03:03:10;94554.53;;;17.92;76.41
36932;BME280;22847;42.654;23.370;2022-07-10T03:05:36;94503.22;;;17.95;75.30
36932;BME280;22847;42.654;23.370;2022-07-10T03:08:01;94593.78;;;18.02;75.93
36932;BME280;22847;42.654;23.370;2022-07-10T03:10:27;94543.28;;;18.05;75.82
36932;BME280;22847;42.654;23.370;2022-07-10T03:12:52;94582.09;;;17.83;75.46
36932;BME280;22847;42.654;23.370;2022-07-10T03:15:18;94540.72;;;17.90;76.27
36932;BME280;22847;42.654;23.370;2022-07-10T03:17:43;94544.09;;;18.05;75.98
36932;BME280;22847;42.654;23.370;2022-07-10T03:20:10;94500.06;;;17.78;75.43
36932;BME280;22847;42.654;23.370;2022-07-10T03:22:36;94589.97;;;18.11;75.53
36932;BME280;22847;42.654;23.370;2022-07-10T03:25:03;94345.47;;;16.87;74.46
36932;BME280;22847;42.654;23.370;2022-07-10T03:27:28;94576.28;;;18.22;74.24
36932;BME280;22847;42.654;23.370;2022-07-10T03:29:54;94407.72;;;16.94;75.45
36932;BME280;22847;42.654;23.370;2022-07-10T03:32:19;94508.84;;;17.85;75.36
36932;BME280;22847;42.654;23.370;2022-07-10T03:34:45;94548.78;;;17.82;75.41
36932;BME280;22847;42.654;23.370;2022-07-10T03:37:10;94581.81;;;18.06;75.43
36932;BME280;22847;42.654;23.370;2022-07-10T03:39:35;94551.53;;;17.95;76.28
36932;BME280;22847;42.654;23.370;2022-07-10T03:42:01;94326.81;;;16.82;74.76
36932;BME280;22847;42.654;23.370;2022-07-10T03:44:26;94477.81;;;17.87;74.17
36932;BME280;22847;42.654;23.370;2022-07-10T03:46:52;94319.94;;;16.60;75.25
36932;BME280;22847;42.654;23.370;2022-07-10T03:49:18;94545.66;;;18.00;76.02
36932;BME280;22847;42.654;23.370;2022-07-10T03:51:43;94371.81;;;16.87;76.37
36932;BME280;22847;42.654;23.370;2022-07-10T03:54:09;94540.50;;;17.85;76.62
36932;BME280;22847;42.654;23.370;2022-07-10T03:56:34;94543.84;;;18.00;76.60
36932;BME280;22847;42.654;23.370;2022-07-10T03:59:18;94561.59;;;18.13;75.95
36932;BME280;22847;42.654;23.370;2022-07-10T04:01:44;94361.34;;;17.21;74.65
36932;BME280;22847;42.654;23.370;2022-07-10T04:04:09;94311.63;;;16.84;75.07
36932;BME280;22847;42.654;23.370;2022-07-10T04:06:35;94553.81;;;18.39;74.73
36932;BME280;22847;42.654;23.370;2022-07-10T04:09:04;94169.44;;;16.56;72.14
36932;BME280;22847;42.654;23.370;2022-07-10T04:11:30;94530.59;;;19.23;70.90
36932;BME280;22847;42.654;23.370;2022-07-10T04:13:56;94295.66;;;18.08;69.65
36932;BME280;22847;42.654;23.370;2022-07-10T04:16:21;94359.16;;;18.74;68.20
36932;BME280;22847;42.654;23.370;2022-07-10T04:18:48;94527.41;;;19.93;67.68
36932;BME280;22847;42.654;23.370;2022-07-10T04:21:13;94525.53;;;20.20;66.74
36932;BME280;22847;42.654;23.370;2022-07-10T04:23:39;94526.13;;;20.35;65.89
36932;BME280;22847;42.654;23.370;2022-07-10T04:26:04;94534.69;;;20.18;66.59
36932;BME280;22847;42.654;23.370;2022-07-10T04:28:30;94477.69;;;20.15;65.63
36932;BME280;22847;42.654;23.370;2022-07-10T04:30:55;94404.69;;;19.68;65.85
36932;BME280;22847;42.654;23.370;2022-07-10T04:33:22;94492.16;;;20.13;65.84
36932;BME280;22847;42.654;23.370;2022-07-10T04:35:48;94516.31;;;20.49;65.34
36932;BME280;22847;42.654;23.370;2022-07-10T04:38:14;94520.59;;;20.50;65.22
36932;BME280;22847;42.654;23.370;2022-07-10T04:40:39;94528.34;;;20.96;64.18
36932;BME280;22847;42.654;23.370;2022-07-10T04:43:05;94501.22;;;21.01;63.03
36932;BME280;22847;42.654;23.370;2022-07-10T04:45:30;94451.50;;;20.89;63.01
36932;BME280;22847;42.654;23.370;2022-07-10T04:47:56;94303.16;;;20.14;62.54
36932;BME280;22847;42.654;23.370;2022-07-10T04:50:21;94383.59;;;20.64;61.34
36932;BME280;22847;42.654;23.370;2022-07-10T04:52:47;94565.94;;;21.62;60.90
36932;BME280;22847;42.654;23.370;2022-07-10T04:55:12;94400.22;;;20.77;61.36
36932;BME280;22847;42.654;23.370;2022-07-10T04:57:37;94509.28;;;21.75;60.30
36932;BME280;22847;42.654;23.370;2022-07-10T05:00:04;94511.28;;;22.11;59.04
36932;BME280;22847;42.654;23.370;2022-07-10T05:02:30;94513.34;;;22.27;58.43
36932;BME280;22847;42.654;23.370;2022-07-10T05:04:55;94503.03;;;22.37;57.45
36932;BME280;22847;42.654;23.370;2022-07-10T05:07:20;94506.50;;;22.19;58.46
36932;BME280;22847;42.654;23.370;2022-07-10T05:09:46;94324.22;;;21.03;58.40
36932;BME280;22847;42.654;23.370;2022-07-10T05:12:11;94427.63;;;21.77;58.51
36932;BME280;22847;42.654;23.370;2022-07-10T05:14:37;94304.91;;;21.20;57.63
36932;BME280;22847;42.654;23.370;2022-07-10T05:17:02;94509.28;;;22.61;57.61
36932;BME280;22847;42.654;23.370;2022-07-10T05:19:28;94316.94;;;21.41;57.45
36932;BME280;22847;42.654;23.370;2022-07-10T05:21:54;94491.81;;;22.72;56.17
36932;BME280;22847;42.654;23.370;2022-07-10T05:24:20;94494.91;;;22.68;56.67
36932;BME280;22847;42.654;23.370;2022-07-10T05:26:45;94511.91;;;22.86;56.39
36932;BME280;22847;42.654;23.370;2022-07-10T05:29:11;94449.50;;;22.52;56.66
36932;BME280;22847;42.654;23.370;2022-07-10T05:31:36;94487.53;;;22.34;56.52
36932;BME280;22847;42.654;23.370;2022-07-10T05:34:02;94482.50;;;22.81;56.01
36932;BME280;22847;42.654;23.370;2022-07-10T05:36:27;94410.75;;;22.62;54.87
36932;BME280;22847;42.654;23.370;2022-07-10T05:38:53;94303.84;;;21.64;56.16
36932;BME280;22847;42.654;23.370;2022-07-10T05:41:18;94507.19;;;22.69;56.24
36932;BME280;22847;42.654;23.370;2022-07-10T05:43:44;94529.19;;;22.95;56.03
36932;BME280;22847;42.654;23.370;2022-07-10T05:46:09;94498.56;;;23.34;55.55
36932;BME280;22847;42.654;23.370;2022-07-10T05:48:35;94491.50;;;23.69;54.07
36932;BME280;22847;42.654;23.370;2022-07-10T05:51:01;94485.13;;;23.59;55.73
36932;BME280;22847;42.654;23.370;2022-07-10T05:53:26;94493.84;;;24.12;53.63
36932;BME280;22847;42.654;23.370;2022-07-10T05:55:51;94470.56;;;23.84;53.10
36932;BME280;22847;42.654;23.370;2022-07-10T05:58:17;94505.78;;;23.98;53.64
36932;BME280;22847;42.654;23.370;2022-07-10T06:00:43;94357.44;;;23.40;53.51
36932;BME280;22847;42.654;23.370;2022-07-10T06:03:10;94454.44;;;24.14;51.88
36932;BME280;22847;42.654;23.370;2022-07-10T06:05:35;94474.19;;;24.25;52.11
36932;BME280;22847;42.654;23.370;2022-07-10T06:08:02;94322.03;;;23.51;52.21
36932;BME280;22847;42.654;23.370;2022-07-10T06:10:27;94314.38;;;23.55;50.77
36932;BME280;22847;42.654;23.370;2022-07-10T06:12:53;94403.72;;;24.09;50.49
36932;BME280;22847;42.654;23.370;2022-07-10T06:15:18;94501.41;;;25.02;50.15
36932;BME280;22847;42.654;23.370;2022-07-10T06:17:44;94513.06;;;25.41;48.49
36932;BME280;22847;42.654;23.370;2022-07-10T06:20:09;94413.13;;;25.03;49.19
36932;BME280;22847;42.654;23.370;2022-07-10T06:22:35;94487.91;;;25.65;48.46
36932;BME280;22847;42.654;23.370;2022-07-10T06:25:03;94520.44;;;25.95;47.51
36932;BME280;22847;42.654;23.370;2022-07-10T06:27:30;94503.91;;;25.82;47.50
36932;BME280;22847;42.654;23.370;2022-07-10T06:29:56;94491.38;;;25.65;47.97
36932;BME280;22847;42.654;23.370;2022-07-10T06:32:22;94213.34;;;24.28;46.46
36932;BME280;22847;42.654;23.370;2022-07-10T06:34:47;94313.28;;;24.71;46.35
36932;BME280;22847;42.654;23.370;2022-07-10T06:37:13;94527.72;;;25.83;46.68
36932;BME280;22847;42.654;23.370;2022-07-10T06:39:38;94510.56;;;25.96;46.69
36932;BME280;22847;42.654;23.370;2022-07-10T06:42:05;94489.03;;;25.86;48.00
36932;BME280;22847;42.654;23.370;2022-07-10T06:44:31;94370.53;;;24.80;47.24
36932;BME280;22847;42.654;23.370;2022-07-10T06:46:57;94489.84;;;25.41;47.38
36932;BME280;22847;42.654;23.370;2022-07-10T06:49:42;94372.91;;;24.93;47.11
36932;BME280;22847;42.654;23.370;2022-07-10T06:52:08;94441.19;;;25.67;47.11
36932;BME280;22847;42.654;23.370;2022-07-10T06:54:34;94476.47;;;26.03;45.99
36932;BME280;22847;42.654;23.370;2022-07-10T06:57:00;94321.66;;;24.91;46.38
36932;BME280;22847;42.654;23.370;2022-07-10T06:59:25;94485.22;;;26.15;45.24
36932;BME280;22847;42.654;23.370;2022-07-10T07:01:51;94485.72;;;26.29;45.64
36932;BME280;22847;42.654;23.370;2022-07-10T07:04:16;94451.50;;;26.31;45.19
36932;BME280;22847;42.654;23.370;2022-07-10T07:06:42;94336.94;;;25.46;44.85
36932;BME280;22847;42.654;23.370;2022-07-10T07:09:07;94471.47;;;25.73;45.92
36932;BME280;22847;42.654;23.370;2022-07-10T07:11:33;94439.22;;;25.46;47.23
36932;BME280;22847;42.654;23.370;2022-07-10T07:13:58;94475.59;;;25.64;46.04
36932;BME280;22847;42.654;23.370;2022-07-10T07:16:23;94415.28;;;25.68;46.47
36932;BME280;22847;42.654;23.370;2022-07-10T07:19:03;94497.53;;;26.16;45.72
36932;BME280;22847;42.654;23.370;2022-07-10T07:21:30;94474.38;;;26.22;46.51
36932;BME280;22847;42.654;23.370;2022-07-10T07:24:14;94478.88;;;26.38;45.01
36932;BME280;22847;42.654;23.370;2022-07-10T07:26:40;94331.94;;;25.66;44.89
36932;BME280;22847;42.654;23.370;2022-07-10T07:29:05;94467.09;;;26.77;44.25
36932;BME280;22847;42.654;23.370;2022-07-10T07:31:30;94472.41;;;26.94;43.73
36932;BME280;22847;42.654;23.370;2022-07-10T07:33:57;94317.81;;;26.09;44.44
36932;BME280;22847;42.654;23.370;2022-07-10T07:36:22;94251.25;;;25.64;44.48
36932;BME280;22847;42.654;23.370;2022-07-10T07:38:48;94395.94;;;27.03;42.90
36932;BME280;22847;42.654;23.370;2022-07-10T07:41:13;94480.63;;;27.36;43.18
36932;BME280;22847;42.654;23.370;2022-07-10T07:43:41;94457.47;;;27.51;44.24
36932;BME280;22847;42.654;23.370;2022-07-10T07:46:06;94437.78;;;27.36;43.82
36932;BME280;22847;42.654;23.370;2022-07-10T07:48:32;94440.13;;;27.54;43.94
36932;BME280;22847;42.654;23.370;2022-07-10T07:50:57;94445.41;;;27.49;43.30
36932;BME280;22847;42.654;23.370;2022-07-10T07:53:23;94489.19;;;27.38;42.95
36932;BME280;22847;42.654;23.370;2022-07-10T07:55:49;94452.31;;;27.45;43.63
36932;BME280;22847;42.654;23.370;2022-07-10T07:58:14;94488.19;;;27.44;42.82
36932;BME280;22847;42.654;23.370;2022-07-10T08:00:39;94366.03;;;27.11;42.46
36932;BME280;22847;42.654;23.370;2022-07-10T08:03:05;94457.81;;;27.92;42.22
36932;BME280;22847;42.654;23.370;2022-07-10T08:05:30;94423.22;;;27.85;42.14
36932;BME280;22847;42.654;23.370;2022-07-10T08:07:58;94439.69;;;27.14;43.88
36932;BME280;22847;42.654;23.370;2022-07-10T08:10:26;94344.75;;;26.46;43.63
36932;BME280;22847;42.654;23.370;2022-07-10T08:12:51;94319.81;;;26.40;42.46
36932;BME280;22847;42.654;23.370;2022-07-10T08:15:19;94376.97;;;27.04;43.42
36932;BME280;22847;42.654;23.370;2022-07-10T08:17:48;94446.81;;;27.88;43.20
36932;BME280;22847;42.654;23.370;2022-07-10T08:20:14;94444.34;;;28.14;41.99
36932;BME280;22847;42.654;23.370;2022-07-10T08:22:41;94156.19;;;26.43;40.95
36932;BME280;22847;42.654;23.370;2022-07-10T08:25:07;94453.53;;;28.23;41.06
36932;BME280;22847;42.654;23.370;2022-07-10T08:27:34;94478.28;;;28.35;39.83
36932;BME280;22847;42.654;23.370;2022-07-10T08:29:59;94355.41;;;27.85;40.40
36932;BME280;22847;42.654;23.370;2022-07-10T08:32:25;94450.38;;;28.88;39.76
36932;BME280;22847;42.654;23.370;2022-07-10T08:34:52;94456.13;;;29.17;38.76
36932;BME280;22847;42.654;23.370;2022-07-10T08:37:17;94326.69;;;27.43;39.58
36932;BME280;22847;42.654;23.370;2022-07-10T08:39:45;94464.84;;;27.66;40.36
36932;BME280;22847;42.654;23.370;2022-07-10T08:42:10;94177.28;;;26.40;39.47
36932;BME280;22847;42.654;23.370;2022-07-10T08:44:36;94473.94;;;28.29;39.51
36932;BME280;22847;42.654;23.370;2022-07-10T08:47:03;94454.19;;;28.08;39.99
36932;BME280;22847;42.654;23.370;2022-07-10T08:49:31;94295.63;;;26.84;40.51
36932;BME280;22847;42.654;23.370;2022-07-10T08:54:23;94448.06;;;27.76;40.43
36932;BME280;22847;42.654;23.370;2022-07-10T08:56:49;94416.94;;;27.43;39.89
36932;BME280;22847;42.654;23.370;2022-07-10T08:59:16;94261.56;;;26.69;40.27
36932;BME280;22847;42.654;23.370;2022-07-10T09:01:43;94312.97;;;27.35;39.95
36932;BME280;22847;42.654;23.370;2022-07-10T09:04:21;94450.16;;;28.48;38.24
36932;BME280;22847;42.654;23.370;2022-07-10T09:06:48;94278.28;;;27.50;38.61
36932;BME280;22847;42.654;23.370;2022-07-10T09:09:14;94327.19;;;28.14;37.86
36932;BME280;22847;42.654;23.370;2022-07-10T09:11:40;94449.91;;;29.11;37.58
36932;BME280;22847;42.654;23.370;2022-07-10T09:14:11;94425.56;;;29.33;38.17
36932;BME280;22847;42.654;23.370;2022-07-10T09:16:44;94435.16;;;29.24;35.90
36932;BME280;22847;42.654;23.370;2022-07-10T09:19:22;94432.91;;;28.33;38.00
36932;BME280;22847;42.654;23.370;2022-07-10T09:21:55;94429.88;;;27.78;38.74
36932;BME280;22847;42.654;23.370;2022-07-10T09:24:25;94407.66;;;27.87;39.15
36932;BME280;22847;42.654;23.370;2022-07-10T09:29:22;94398.81;;;28.19;38.10
36932;BME280;22847;42.654;23.370;2022-07-10T09:31:58;94422.81;;;28.51;37.22
36932;BME280;22847;42.654;23.370;2022-07-10T09:34:47;94270.00;;;28.04;37.95
36932;BME280;22847;42.654;23.370;2022-07-10T09:39:58;94304.81;;;28.61;37.45
36932;BME280;22847;42.654;23.370;2022-07-10T09:42:41;94443.06;;;29.71;38.69
36932;BME280;22847;42.654;23.370;2022-07-10T09:50:22;94397.63;;;29.44;36.42
36932;BME280;22847;42.654;23.370;2022-07-10T09:52:56;94422.31;;;29.41;37.06
36932;BME280;22847;42.654;23.370;2022-07-10T09:55:25;94417.69;;;29.06;37.27
36932;BME280;22847;42.654;23.370;2022-07-10T09:57:59;94408.50;;;28.92;37.33
36932;BME280;22847;42.654;23.370;2022-07-10T10:00:30;94340.72;;;28.45;37.89
36932;BME280;22847;42.654;23.370;2022-07-10T10:03:00;94420.09;;;29.03;38.09
36932;BME280;22847;42.654;23.370;2022-07-10T10:05:45;94233.00;;;28.06;38.17
36932;BME280;22847;42.654;23.370;2022-07-10T10:11:24;94387.59;;;28.94;38.14
36932;BME280;22847;42.654;23.370;2022-07-10T10:13:51;94388.38;;;28.90;37.53
36932;BME280;22847;42.654;23.370;2022-07-10T10:16:19;94385.13;;;28.88;38.55
36932;BME280;22847;42.654;23.370;2022-07-10T10:18:46;94390.88;;;29.21;37.11
36932;BME280;22847;42.654;23.370;2022-07-10T10:21:29;94084.56;;;26.82;37.46
36932;BME280;22847;42.654;23.370;2022-07-10T10:23:55;94400.44;;;28.25;36.45
36932;BME280;22847;42.654;23.370;2022-07-10T10:26:22;94413.34;;;27.91;38.32
36932;BME280;22847;42.654;23.370;2022-07-10T10:28:52;94270.81;;;26.35;38.92
36932;BME280;22847;42.654;23.370;2022-07-10T10:31:20;94239.34;;;26.42;39.11
36932;BME280;22847;42.654;23.370;2022-07-10T10:33:46;94382.94;;;27.75;40.74
36932;BME280;22847;42.654;23.370;2022-07-10T10:36:14;94186.84;;;26.62;38.18
36932;BME280;22847;42.654;23.370;2022-07-10T10:41:36;94200.53;;;26.12;39.65
36932;BME280;22847;42.654;23.370;2022-07-10T10:49:17;94207.88;;;26.00;40.29
36932;BME280;22847;42.654;23.370;2022-07-10T10:52:02;94392.56;;;26.86;40.96
36932;BME280;22847;42.654;23.370;2022-07-10T10:54:35;94377.84;;;27.10;39.73
36932;BME280;22847;42.654;23.370;2022-07-10T10:57:15;94366.41;;;26.71;40.70
36932;BME280;22847;42.654;23.370;2022-07-10T11:04:52;94186.81;;;25.39;40.97
36932;BME280;22847;42.654;23.370;2022-07-10T11:13:25;94322.50;;;26.67;40.92
36932;BME280;22847;42.654;23.370;2022-07-10T11:15:52;94374.03;;;26.84;40.41
36932;BME280;22847;42.654;23.370;2022-07-10T11:18:19;94188.06;;;25.96;41.15
36932;BME280;22847;42.654;23.370;2022-07-10T11:20:49;94377.66;;;27.22;40.44
36932;BME280;22847;42.654;23.370;2022-07-10T11:25:57;94228.44;;;26.48;40.34
36932;BME280;22847;42.654;23.370;2022-07-10T11:28:51;94361.97;;;27.35;39.38
36932;BME280;22847;42.654;23.370;2022-07-10T11:31:18;94350.72;;;27.01;39.96
36932;BME280;22847;42.654;23.370;2022-07-10T11:33:45;94363.66;;;27.41;39.98
36932;BME280;22847;42.654;23.370;2022-07-10T11:36:16;94328.88;;;27.15;40.04
36932;BME280;22847;42.654;23.370;2022-07-10T11:38:43;94379.66;;;27.36;39.14
36932;BME280;22847;42.654;23.370;2022-07-10T11:41:16;94202.19;;;26.18;40.69
36932;BME280;22847;42.654;23.370;2022-07-10T11:46:20;94327.97;;;26.07;40.96
36932;BME280;22847;42.654;23.370;2022-07-10T11:48:48;94325.94;;;25.59;42.51
36932;BME280;22847;42.654;23.370;2022-07-10T11:51:17;94377.50;;;26.14;41.58
36932;BME280;22847;42.654;23.370;2022-07-10T11:54:01;94153.91;;;25.11;40.20
36932;BME280;22847;42.654;23.370;2022-07-10T11:56:30;94331.66;;;26.23;40.10
36932;BME280;22847;42.654;23.370;2022-07-10T11:59:01;94240.59;;;25.47;41.32
36932;BME280;22847;42.654;23.370;2022-07-10T12:01:29;94146.28;;;25.20;42.04
36932;BME280;22847;42.654;23.370;2022-07-10T12:06:25;94263.75;;;25.42;40.39
36932;BME280;22847;42.654;23.370;2022-07-10T12:08:51;94202.84;;;25.39;40.09
36932;BME280;22847;42.654;23.370;2022-07-10T12:11:17;94387.78;;;26.44;40.02
36932;BME280;22847;42.654;23.370;2022-07-10T12:13:44;94182.75;;;25.14;41.68
36932;BME280;22847;42.654;23.370;2022-07-10T12:16:10;94366.16;;;26.46;40.13
36932;BME280;22847;42.654;23.370;2022-07-10T12:18:36;94214.38;;;25.44;39.36
36932;BME280;22847;42.654;23.370;2022-07-10T12:21:02;94380.00;;;26.21;41.15
36932;BME280;22847;42.654;23.370;2022-07-10T12:23:28;94364.13;;;26.14;40.94
36932;BME280;22847;42.654;23.370;2022-07-10T12:25:54;94367.63;;;25.60;42.53
36932;BME280;22847;42.654;23.370;2022-07-10T12:28:22;94402.06;;;25.95;41.37
36932;BME280;22847;42.654;23.370;2022-07-10T12:30:48;94359.56;;;25.93;41.31
36932;BME280;22847;42.654;23.370;2022-07-10T12:33:22;94360.03;;;26.07;40.71
36932;BME280;22847;42.654;23.370;2022-07-10T12:35:58;94301.34;;;25.95;40.84
36932;BME280;22847;42.654;23.370;2022-07-10T12:38:30;94363.56;;;26.12;40.73
36932;BME280;22847;42.654;23.370;2022-07-10T12:41:13;94229.81;;;25.59;39.07
36932;BME280;22847;42.654;23.370;2022-07-10T12:43:39;94218.22;;;25.53;39.58
36932;BME280;22847;42.654;23.370;2022-07-10T12:46:15;94366.47;;;26.28;38.65
36932;BME280;22847;42.654;23.370;2022-07-10T12:51:36;94367.56;;;26.32;40.50
36932;BME280;22847;42.654;23.370;2022-07-10T12:54:07;94334.72;;;26.14;38.94
36932;BME280;22847;42.654;23.370;2022-07-10T12:56:33;94211.59;;;25.34;39.07
36932;BME280;22847;42.654;23.370;2022-07-10T12:59:00;94340.72;;;26.22;45.43
36932;BME280;22847;42.654;23.370;2022-07-10T13:01:27;94168.88;;;25.34;44.77
36932;BME280;22847;42.654;23.370;2022-07-10T13:03:58;94380.25;;;26.63;43.37
36932;BME280;22847;42.654;23.370;2022-07-10T13:06:32;94383.28;;;26.93;39.89
36932;BME280;22847;42.654;23.370;2022-07-10T13:08:58;94334.59;;;26.70;42.40
36932;BME280;22847;42.654;23.370;2022-07-10T13:11:24;94382.59;;;26.81;42.04
36932;BME280;22847;42.654;23.370;2022-07-10T13:13:50;94356.56;;;26.98;42.46
36932;BME280;22847;42.654;23.370;2022-07-10T13:16:16;94357.66;;;27.02;41.61
36932;BME280;22847;42.654;23.370;2022-07-10T13:18:43;94367.38;;;27.08;40.40
36932;BME280;22847;42.654;23.370;2022-07-10T13:21:09;94361.09;;;26.98;39.50
36932;BME280;22847;42.654;23.370;2022-07-10T13:23:36;94352.44;;;26.86;38.27
36932;BME280;22847;42.654;23.370;2022-07-10T13:26:03;94312.69;;;26.99;38.60
36932;BME280;22847;42.654;23.370;2022-07-10T13:28:29;94338.50;;;27.11;35.49
36932;BME280;22847;42.654;23.370;2022-07-10T13:30:55;94348.06;;;27.06;38.49
36932;BME280;22847;42.654;23.370;2022-07-10T13:33:21;94339.25;;;26.84;39.66
36932;BME280;22847;42.654;23.370;2022-07-10T13:35:48;94349.91;;;27.01;36.70